createdAt,value
2018-05-24T00:01:08.271Z,16.20
2018-05-24T00:03:37.468Z,16.20
2018-05-24T00:06:05.262Z,16.20
2018-05-24T00:08:32.799Z,16.20
2018-05-24T00:11:00.338Z,16.10
2018-05-24T00:13:28.622Z,16.10
2018-05-24T00:15:56.181Z,16.10
2018-05-24T00:18:25.582Z,16.10
2018-05-24T00:20:53.116Z,16.10
2018-05-24T00:23:20.666Z,16.10
2018-05-24T00:25:48.807Z,16.10
2018-05-24T00:28:16.330Z,16.10
2018-05-24T00:30:43.861Z,16.20
2018-05-24T00:33:12.142Z,16.10
2018-05-24T00:35:39.743Z,16.20
2018-05-24T00:38:07.502Z,16.20
2018-05-24T00:40:35.048Z,16.20
2018-05-24T00:43:02.657Z,16.20
2018-05-24T00:45:30.976Z,16.20
2018-05-24T00:47:59.256Z,16.20
2018-05-24T00:50:26.866Z,16.20
2018-05-24T00:52:55.164Z,16.20
2018-05-24T00:55:34.734Z,16.10
2018-05-24T00:58:02.262Z,16.10
2018-05-24T01:00:29.801Z,16.10
2018-05-24T01:03:01.889Z,16.20
2018-05-24T01:05:30.264Z,16.20
2018-05-24T01:07:58.647Z,16.10
2018-05-24T01:10:26.196Z,16.10
2018-05-24T01:12:53.767Z,16.10
2018-05-24T01:15:21.319Z,16.10
2018-05-24T01:17:49.001Z,16.10
2018-05-24T01:20:17.423Z,16.10
2018-05-24T01:22:44.956Z,16.10
2018-05-24T01:25:12.534Z,16.20
2018-05-24T01:27:40.084Z,16.20
2018-05-24T01:30:07.608Z,16.10
2018-05-24T01:32:35.182Z,16.10
2018-05-24T01:35:02.755Z,16.10
2018-05-24T01:37:42.524Z,16.10
2018-05-24T01:40:10.170Z,16.00
2018-05-24T01:42:38.484Z,16.10
2018-05-24T01:45:06.767Z,16.00
2018-05-24T01:47:34.311Z,16.00
2018-05-24T01:50:01.837Z,16.00
2018-05-24T01:52:30.150Z,16.00
2018-05-24T01:54:57.675Z,15.90
2018-05-24T01:57:26.216Z,15.90
2018-05-24T01:59:53.767Z,15.80
2018-05-24T02:02:21.317Z,15.90
2018-05-24T02:04:49.919Z,15.80
2018-05-24T02:07:17.475Z,15.70
2018-05-24T02:09:45.052Z,15.70
2018-05-24T02:12:13.379Z,15.60
2018-05-24T02:14:41.027Z,15.60
2018-05-24T02:17:08.568Z,15.60
2018-05-24T02:19:36.609Z,15.60
2018-05-24T02:24:30.275Z,15.50
2018-05-24T02:26:57.830Z,15.50
2018-05-24T02:29:25.348Z,15.50
2018-05-24T02:31:52.906Z,15.40
2018-05-24T02:34:20.444Z,15.40
2018-05-24T02:36:48.724Z,15.40
2018-05-24T02:39:16.280Z,15.40
2018-05-24T02:41:43.857Z,15.40
2018-05-24T02:44:11.482Z,15.40
2018-05-24T02:46:38.998Z,15.40
2018-05-24T02:49:06.631Z,15.30
2018-05-24T02:51:34.256Z,15.30
2018-05-24T02:54:01.852Z,15.30
2018-05-24T02:56:29.408Z,15.30
2018-05-24T02:58:56.925Z,15.30
2018-05-24T03:01:24.464Z,15.30
2018-05-24T03:03:51.997Z,15.30
2018-05-24T03:06:19.613Z,15.30
2018-05-24T03:08:47.194Z,15.30
2018-05-24T03:11:14.760Z,15.20
2018-05-24T03:13:42.304Z,15.20
2018-05-24T03:16:09.870Z,15.20
2018-05-24T03:18:37.699Z,15.20
2018-05-24T03:21:06.038Z,15.20
2018-05-24T03:23:34.757Z,15.20
2018-05-24T03:26:03.150Z,15.30
2018-05-24T03:28:30.711Z,15.20
2018-05-24T03:30:59.559Z,15.30
2018-05-24T03:33:27.863Z,15.30
2018-05-24T03:35:55.384Z,15.30
2018-05-24T03:38:22.932Z,15.30
2018-05-24T03:40:50.450Z,15.30
2018-05-24T03:43:18.104Z,15.30
2018-05-24T03:45:45.622Z,15.40
2018-05-24T03:48:13.205Z,15.40
2018-05-24T03:50:40.719Z,15.40
2018-05-24T03:53:09.027Z,15.50
2018-05-24T03:55:36.542Z,15.50
2018-05-24T03:58:04.082Z,15.50
2018-05-24T04:00:44.903Z,15.60
2018-05-24T04:03:24.128Z,15.60
2018-05-24T04:05:51.736Z,15.70
2018-05-24T04:08:19.286Z,15.70
2018-05-24T04:10:46.814Z,15.70
2018-05-24T04:13:14.359Z,15.80
2018-05-24T04:15:41.876Z,15.80
2018-05-24T04:18:09.440Z,15.90
2018-05-24T04:20:36.963Z,15.90
2018-05-24T04:23:04.760Z,15.90
2018-05-24T04:25:32.528Z,15.90
2018-05-24T04:28:00.120Z,15.90
2018-05-24T04:30:27.659Z,15.90
2018-05-24T04:32:55.347Z,15.90
2018-05-24T04:35:22.921Z,16.00
2018-05-24T04:37:55.139Z,16.00
2018-05-24T04:40:22.651Z,16.00
2018-05-24T04:42:50.889Z,16.00
2018-05-24T04:45:19.207Z,16.00
2018-05-24T04:47:46.763Z,16.00
2018-05-24T04:50:14.436Z,16.10
2018-05-24T04:52:42.759Z,16.10
2018-05-24T04:55:10.301Z,16.10
2018-05-24T04:57:38.794Z,16.20
2018-05-24T05:00:06.365Z,16.20
2018-05-24T05:02:33.979Z,16.30
2018-05-24T05:05:01.521Z,16.40
2018-05-24T05:07:29.157Z,16.40
2018-05-24T05:09:57.394Z,16.50
2018-05-24T05:12:24.932Z,16.60
2018-05-24T05:14:52.483Z,16.70
2018-05-24T05:17:19.999Z,16.70
2018-05-24T05:19:48.340Z,16.80
2018-05-24T05:22:15.917Z,16.80
2018-05-24T05:24:43.471Z,16.90
2018-05-24T05:27:10.990Z,16.90
2018-05-24T05:29:39.429Z,16.90
2018-05-24T05:32:06.955Z,17.00
2018-05-24T05:34:34.494Z,17.10
2018-05-24T05:37:02.016Z,17.30
2018-05-24T05:39:29.572Z,17.30
2018-05-24T05:41:57.131Z,17.40
2018-05-24T05:44:24.827Z,17.40
2018-05-24T05:46:53.279Z,17.50
2018-05-24T05:49:21.527Z,17.60
2018-05-24T05:51:49.178Z,17.70
2018-05-24T05:54:16.714Z,17.70
2018-05-24T05:56:44.255Z,17.70
2018-05-24T05:59:11.881Z,17.80
2018-05-24T06:01:39.428Z,17.90
2018-05-24T06:04:06.971Z,18.00
2018-05-24T06:06:34.590Z,18.00
2018-05-24T06:09:02.159Z,18.00
2018-05-24T06:11:29.745Z,18.00
2018-05-24T06:13:57.478Z,18.00
2018-05-24T06:16:25.035Z,18.20
2018-05-24T06:18:52.655Z,18.40
2018-05-24T06:21:20.187Z,18.60
2018-05-24T06:23:48.733Z,18.60
2018-05-24T06:26:16.290Z,18.50
2018-05-24T06:28:45.788Z,18.60
2018-05-24T06:31:13.704Z,18.50
2018-05-24T06:33:42.012Z,18.60
2018-05-24T06:36:09.584Z,18.50
2018-05-24T06:38:37.168Z,18.60
2018-05-24T06:41:04.698Z,18.60
2018-05-24T06:43:33.003Z,18.60
2018-05-24T06:46:00.899Z,18.50
2018-05-24T06:48:28.439Z,18.60
2018-05-24T06:50:55.991Z,18.80
2018-05-24T06:53:23.616Z,19.00
2018-05-24T06:55:51.167Z,19.10
2018-05-24T06:58:19.520Z,19.10
2018-05-24T07:00:47.067Z,19.10
2018-05-24T07:03:14.601Z,19.20
2018-05-24T07:05:42.167Z,19.30
2018-05-24T07:08:10.712Z,19.50
2018-05-24T07:10:40.084Z,19.80
2018-05-24T07:13:07.615Z,20.00
2018-05-24T07:15:35.191Z,20.30
2018-05-24T07:18:07.591Z,20.30
2018-05-24T07:20:35.914Z,20.60
2018-05-24T07:23:03.488Z,20.60
2018-05-24T07:25:31.072Z,20.70
2018-05-24T07:28:00.395Z,20.90
2018-05-24T07:30:28.199Z,21.10
2018-05-24T07:32:55.976Z,21.20
2018-05-24T07:35:23.651Z,21.40
2018-05-24T07:37:51.342Z,21.70
2018-05-24T07:40:18.892Z,21.80
2018-05-24T07:42:46.410Z,21.70
2018-05-24T07:45:14.971Z,21.70
2018-05-24T07:47:43.250Z,21.50
2018-05-24T07:50:12.401Z,21.40
2018-05-24T07:52:39.931Z,21.30
2018-05-24T07:55:07.477Z,21.40
2018-05-24T07:57:35.021Z,21.50
2018-05-24T08:00:02.564Z,21.50
2018-05-24T08:02:30.081Z,21.50
2018-05-24T08:04:57.743Z,21.50
2018-05-24T08:07:26.951Z,21.40
2018-05-24T08:09:54.494Z,21.40
2018-05-24T08:12:22.031Z,21.40
2018-05-24T08:14:49.623Z,21.40
2018-05-24T08:17:18.039Z,21.40
2018-05-24T08:19:45.584Z,21.40
2018-05-24T08:22:13.203Z,21.60
2018-05-24T08:24:40.752Z,21.80
2018-05-24T08:27:08.273Z,22.00
2018-05-24T08:29:35.849Z,22.20
2018-05-24T08:32:03.463Z,22.40
2018-05-24T08:34:31.016Z,22.40
2018-05-24T08:36:58.582Z,22.30
2018-05-24T08:39:26.168Z,22.40
2018-05-24T08:41:54.563Z,22.60
2018-05-24T08:44:22.078Z,22.50
2018-05-24T08:46:50.923Z,22.60
2018-05-24T08:49:18.439Z,22.60
2018-05-24T08:51:45.988Z,22.70
2018-05-24T08:54:13.530Z,22.70
2018-05-24T08:56:41.163Z,22.80
2018-05-24T08:59:08.691Z,22.80
2018-05-24T09:01:37.574Z,22.90
2018-05-24T09:04:05.106Z,22.90
2018-05-24T09:06:32.685Z,22.90
2018-05-24T09:09:00.245Z,23.00
2018-05-24T09:11:27.807Z,23.10
2018-05-24T09:13:57.313Z,23.10
2018-05-24T09:16:24.903Z,23.30
2018-05-24T09:18:52.430Z,23.40
2018-05-24T09:21:21.720Z,23.70
2018-05-24T09:23:50.113Z,23.40
2018-05-24T09:26:17.767Z,23.40
2018-05-24T09:28:45.283Z,23.40
2018-05-24T09:31:12.826Z,23.40
2018-05-24T09:33:40.395Z,23.40
2018-05-24T09:36:08.080Z,23.50
2018-05-24T09:38:35.596Z,23.60
2018-05-24T09:41:03.234Z,23.70
2018-05-24T09:43:30.754Z,23.60
2018-05-24T09:45:58.295Z,23.60
2018-05-24T09:48:25.827Z,23.70
2018-05-24T09:50:53.367Z,23.70
2018-05-24T09:53:20.985Z,23.60
2018-05-24T09:55:49.326Z,23.20
2018-05-24T09:58:16.846Z,23.20
2018-05-24T10:00:44.387Z,23.20
2018-05-24T10:03:12.542Z,23.30
2018-05-24T10:05:40.095Z,23.30
2018-05-24T10:08:07.947Z,23.40
2018-05-24T10:10:35.655Z,23.50
2018-05-24T10:13:03.163Z,23.60
2018-05-24T10:15:30.722Z,23.80
2018-05-24T10:17:58.469Z,23.90
2018-05-24T10:20:26.195Z,24.00
2018-05-24T10:22:53.747Z,24.00
2018-05-24T10:25:21.457Z,24.10
2018-05-24T10:27:49.007Z,24.10
2018-05-24T10:30:18.457Z,24.10
2018-05-24T10:32:46.008Z,24.10
2018-05-24T10:35:13.592Z,24.20
2018-05-24T10:37:41.175Z,24.40
2018-05-24T10:40:08.704Z,24.40
2018-05-24T10:42:36.290Z,24.60
2018-05-24T10:45:03.838Z,24.60
2018-05-24T10:47:32.069Z,24.60
2018-05-24T10:50:00.878Z,24.70
2018-05-24T10:52:28.556Z,24.90
2018-05-24T10:54:56.936Z,25.00
2018-05-24T10:57:24.507Z,25.10
2018-05-24T10:59:52.071Z,25.10
2018-05-24T11:02:20.388Z,24.90
2018-05-24T11:04:48.174Z,24.90
2018-05-24T11:07:15.785Z,25.00
2018-05-24T11:09:43.314Z,25.00
2018-05-24T11:12:10.985Z,25.10
2018-05-24T11:14:41.548Z,25.40
2018-05-24T11:17:09.867Z,25.70
2018-05-24T11:19:37.387Z,25.70
2018-05-24T11:22:05.111Z,25.80
2018-05-24T11:24:32.730Z,25.90
2018-05-24T11:27:02.498Z,25.80
2018-05-24T11:29:30.071Z,25.70
2018-05-24T11:31:58.675Z,25.30
2018-05-24T11:34:26.136Z,25.10
2018-05-24T11:36:53.685Z,25.10
2018-05-24T11:39:22.005Z,25.20
2018-05-24T11:41:49.676Z,25.30
2018-05-24T11:44:17.347Z,25.60
2018-05-24T11:46:45.323Z,25.90
2018-05-24T11:49:12.859Z,25.80
2018-05-24T11:51:40.423Z,25.80
2018-05-24T11:54:08.808Z,25.60
2018-05-24T11:56:36.376Z,25.70
2018-05-24T11:59:04.575Z,25.70
2018-05-24T12:01:34.434Z,25.90
2018-05-24T12:04:01.964Z,26.00
2018-05-24T12:06:30.143Z,26.10
2018-05-24T12:08:57.675Z,26.10
2018-05-24T12:11:25.242Z,26.10
2018-05-24T12:13:52.955Z,25.90
2018-05-24T12:16:20.614Z,25.70
2018-05-24T12:18:48.645Z,25.60
2018-05-24T12:21:16.941Z,25.60
2018-05-24T12:23:44.528Z,25.60
2018-05-24T12:26:12.107Z,25.70
2018-05-24T12:28:39.839Z,25.70
2018-05-24T12:31:09.098Z,26.10
2018-05-24T12:33:39.313Z,26.00
2018-05-24T12:36:07.602Z,26.10
2018-05-24T12:38:36.194Z,26.10
2018-05-24T12:41:03.984Z,26.10
2018-05-24T12:43:31.540Z,26.10
2018-05-24T12:45:59.110Z,26.20
2018-05-24T12:48:27.559Z,26.10
2018-05-24T12:50:55.320Z,26.10
2018-05-24T12:53:23.685Z,26.10
2018-05-24T12:55:52.087Z,26.20
2018-05-24T12:58:20.256Z,26.20
2018-05-24T13:00:47.964Z,26.20
2018-05-24T13:03:15.711Z,26.30
2018-05-24T13:05:43.398Z,26.20
2018-05-24T13:08:11.425Z,26.20
2018-05-24T13:10:39.146Z,26.20
2018-05-24T13:13:08.251Z,26.20
2018-05-24T13:15:35.967Z,26.30
2018-05-24T13:18:04.407Z,26.10
2018-05-24T13:20:32.665Z,26.30
2018-05-24T13:23:00.229Z,26.20
2018-05-24T13:25:28.147Z,26.10
2018-05-24T13:27:55.765Z,26.10
2018-05-24T13:30:24.053Z,26.30
2018-05-24T13:32:53.060Z,26.30
2018-05-24T13:35:20.649Z,26.30
2018-05-24T13:37:48.991Z,26.60
2018-05-24T13:40:16.523Z,26.50
2018-05-24T13:42:46.507Z,26.70
2018-05-24T13:45:14.110Z,26.80
2018-05-24T13:47:41.829Z,27.00
2018-05-24T13:50:11.136Z,27.10
2018-05-24T13:52:41.014Z,27.10
2018-05-24T13:55:08.581Z,27.10
2018-05-24T13:57:43.798Z,27.20
2018-05-24T14:00:12.132Z,27.40
2018-05-24T14:02:39.732Z,27.30
2018-05-24T14:05:09.418Z,27.40
2018-05-24T14:07:37.145Z,27.30
2018-05-24T14:10:05.126Z,27.10
2018-05-24T14:12:32.675Z,27.10
2018-05-24T14:15:00.279Z,27.00
2018-05-24T14:17:30.632Z,27.10
2018-05-24T14:19:58.300Z,27.20
2018-05-24T14:22:25.921Z,27.10
2018-05-24T14:24:56.490Z,27.10
2018-05-24T14:27:24.896Z,27.70
2018-05-24T14:29:57.540Z,27.60
2018-05-24T14:32:25.847Z,28.10
2018-05-24T14:34:53.859Z,28.00
2018-05-24T14:37:22.399Z,28.10
2018-05-24T14:39:50.800Z,28.20
2018-05-24T14:42:18.445Z,28.20
2018-05-24T14:44:46.847Z,28.20
2018-05-24T14:47:14.388Z,28.20
2018-05-24T14:49:41.973Z,28.40
2018-05-24T14:52:09.674Z,28.50
2018-05-24T14:54:37.247Z,28.50
2018-05-24T14:57:04.837Z,28.60
2018-05-24T14:59:34.087Z,29.00
2018-05-24T15:02:01.625Z,28.90
2018-05-24T15:04:29.202Z,29.00
2018-05-24T15:06:56.878Z,28.90
2018-05-24T15:09:24.431Z,28.70
2018-05-24T15:11:52.135Z,28.80
2018-05-24T15:14:20.475Z,29.10
2018-05-24T15:16:47.995Z,29.10
2018-05-24T15:19:16.389Z,29.40
2018-05-24T15:21:43.930Z,29.50
2018-05-24T15:24:11.531Z,29.60
2018-05-24T15:26:39.172Z,30.10
2018-05-24T15:29:06.717Z,30.50
2018-05-24T15:31:34.336Z,31.00
2018-05-24T15:34:04.970Z,30.90
2018-05-24T15:36:32.515Z,30.80
2018-05-24T15:39:00.131Z,31.20
2018-05-24T15:41:27.664Z,31.40
2018-05-24T15:43:55.392Z,32.00
2018-05-24T15:46:22.951Z,33.00
2018-05-24T15:48:50.512Z,33.80
2018-05-24T15:51:18.120Z,34.90
2018-05-24T15:53:45.666Z,35.90
2018-05-24T15:56:14.139Z,37.00
2018-05-24T15:58:41.969Z,37.60
2018-05-24T16:01:09.696Z,38.20
2018-05-24T16:03:37.247Z,39.20
2018-05-24T16:06:05.286Z,38.40
2018-05-24T16:08:33.717Z,37.80
2018-05-24T16:11:01.511Z,37.80
2018-05-24T16:13:29.176Z,38.70
2018-05-24T16:15:56.876Z,39.40
2018-05-24T16:18:26.116Z,39.70
2018-05-24T16:20:53.683Z,40.00
2018-05-24T16:23:21.234Z,39.60
2018-05-24T16:25:51.110Z,39.60
2018-05-24T16:28:18.957Z,40.10
2018-05-24T16:30:47.873Z,40.30
2018-05-24T16:33:26.955Z,40.40
2018-05-24T16:35:54.772Z,40.30
2018-05-24T16:38:22.541Z,39.80
2018-05-24T16:40:50.163Z,39.80
2018-05-24T16:43:17.728Z,40.20
2018-05-24T16:45:45.350Z,40.30
2018-05-24T16:48:13.722Z,40.50
2018-05-24T16:50:41.914Z,40.50
2018-05-24T16:53:09.989Z,40.80
2018-05-24T16:55:45.055Z,40.90
2018-05-24T16:58:13.487Z,40.70
2018-05-24T17:00:41.114Z,40.70
2018-05-24T17:03:09.194Z,39.90
2018-05-24T17:05:36.738Z,40.00
2018-05-24T17:08:04.298Z,40.30
2018-05-24T17:10:31.840Z,40.30
2018-05-24T17:12:59.559Z,39.90
2018-05-24T17:15:27.092Z,38.70
2018-05-24T17:17:54.623Z,38.10
2018-05-24T17:20:22.167Z,38.40
2018-05-24T17:22:50.746Z,38.50
2018-05-24T17:25:18.327Z,38.00
2018-05-24T17:27:46.119Z,37.60
2018-05-24T17:30:13.710Z,37.60
2018-05-24T17:32:41.243Z,37.60
2018-05-24T17:35:10.236Z,38.10
2018-05-24T17:37:37.773Z,38.60
2018-05-24T17:40:05.320Z,38.80
2018-05-24T17:42:32.863Z,38.90
2018-05-24T17:45:00.503Z,38.70
2018-05-24T17:47:28.111Z,38.70
2018-05-24T17:49:55.886Z,38.50
2018-05-24T17:52:23.449Z,37.60
2018-05-24T17:54:51.357Z,36.90
2018-05-24T17:57:18.980Z,36.70
2018-05-24T17:59:47.299Z,36.00
2018-05-24T18:02:14.848Z,36.00
2018-05-24T18:04:42.414Z,35.90
2018-05-24T18:07:09.983Z,35.50
2018-05-24T18:09:38.339Z,34.80
2018-05-24T18:12:05.928Z,34.80
2018-05-24T18:14:33.514Z,33.90
2018-05-24T18:17:01.366Z,32.90
2018-05-24T18:19:28.909Z,32.40
2018-05-24T18:21:57.668Z,31.60
2018-05-24T18:24:25.256Z,30.70
2018-05-24T18:26:52.789Z,29.90
2018-05-24T18:29:21.178Z,28.20
2018-05-24T18:31:48.828Z,28.10
2018-05-24T18:34:16.375Z,27.40
2018-05-24T18:36:43.931Z,26.80
2018-05-24T18:39:11.595Z,26.20
2018-05-24T18:41:39.341Z,25.80
2018-05-24T18:44:06.989Z,25.40
2018-05-24T18:46:34.548Z,25.10
2018-05-24T18:49:02.099Z,24.80
2018-05-24T18:51:29.650Z,24.50
2018-05-24T18:53:57.174Z,24.30
2018-05-24T18:56:24.815Z,24.00
2018-05-24T18:58:52.692Z,23.90
2018-05-24T19:01:23.062Z,23.70
2018-05-24T19:03:50.606Z,23.50
2018-05-24T19:06:18.267Z,23.40
2018-05-24T19:08:46.213Z,23.20
2018-05-24T19:11:14.116Z,23.10
2018-05-24T19:13:42.455Z,22.90
2018-05-24T19:16:10.032Z,22.80
2018-05-24T19:18:38.379Z,22.60
2018-05-24T19:21:06.739Z,22.50
2018-05-24T19:23:34.571Z,22.50
2018-05-24T19:26:05.780Z,22.40
2018-05-24T19:28:33.532Z,22.30
2018-05-24T19:31:01.123Z,22.20
2018-05-24T19:33:28.683Z,22.10
2018-05-24T19:35:57.171Z,21.90
2018-05-24T19:38:24.860Z,21.90
2018-05-24T19:40:53.561Z,21.80
2018-05-24T19:43:22.002Z,21.70
2018-05-24T19:45:50.339Z,21.60
2018-05-24T19:48:28.916Z,21.60
2018-05-24T19:50:57.196Z,21.50
2018-05-24T19:53:24.755Z,21.50
2018-05-24T19:55:52.281Z,21.40
2018-05-24T19:58:21.375Z,21.30
2018-05-24T20:00:49.494Z,21.30
2018-05-24T20:03:18.676Z,21.20
2018-05-24T20:05:46.789Z,21.20
2018-05-24T20:08:14.935Z,21.20
2018-05-24T20:10:47.044Z,21.10
2018-05-24T20:13:15.675Z,21.10
2018-05-24T20:15:45.215Z,21.00
2018-05-24T20:18:12.894Z,21.00
2018-05-24T20:20:40.459Z,21.00
2018-05-24T20:23:09.014Z,20.90
2018-05-24T20:25:38.015Z,20.90
2018-05-24T20:28:05.635Z,20.80
2018-05-24T20:30:33.239Z,20.80
2018-05-24T20:33:00.824Z,20.80
2018-05-24T20:35:28.505Z,20.90
2018-05-24T20:37:56.918Z,20.80
2018-05-24T20:40:26.064Z,20.80
2018-05-24T20:42:57.216Z,20.80
2018-05-24T20:45:25.772Z,20.70
2018-05-24T20:47:53.400Z,20.70
2018-05-24T20:50:21.871Z,20.60
2018-05-24T20:52:54.278Z,20.60
2018-05-24T20:55:23.019Z,20.60
2018-05-24T20:57:50.705Z,20.60
2018-05-24T21:00:18.297Z,20.50
2018-05-24T21:02:48.825Z,20.40
2018-05-24T21:05:17.685Z,20.40
2018-05-24T21:07:46.029Z,20.40
2018-05-24T21:10:13.579Z,20.40
2018-05-24T21:12:41.271Z,20.30
2018-05-24T21:15:08.824Z,20.30
2018-05-24T21:17:36.646Z,20.20
2018-05-24T21:20:05.763Z,20.10
2018-05-24T21:22:33.620Z,20.10
2018-05-24T21:25:02.097Z,20.10
2018-05-24T21:27:30.219Z,20.00
2018-05-24T21:29:57.818Z,20.00
2018-05-24T21:32:26.090Z,19.90
2018-05-24T21:34:53.651Z,19.90
2018-05-24T21:37:22.490Z,19.80
2018-05-24T21:39:51.163Z,19.80
2018-05-24T21:42:18.748Z,19.70
2018-05-24T21:44:46.366Z,19.70
2018-05-24T21:47:14.214Z,19.60
2018-05-24T21:49:43.375Z,19.60
2018-05-24T21:52:10.968Z,19.50
2018-05-24T21:54:39.640Z,19.40
2018-05-24T21:57:07.219Z,19.40
2018-05-24T21:59:35.003Z,19.40
2018-05-24T22:02:02.605Z,19.30
2018-05-24T22:04:30.644Z,19.20
2018-05-24T22:06:59.173Z,19.20
2018-05-24T22:09:27.535Z,19.10
2018-05-24T22:11:55.082Z,19.10
2018-05-24T22:14:22.655Z,19.10
2018-05-24T22:16:50.968Z,18.90
2018-05-24T22:19:18.539Z,18.90
2018-05-24T22:21:46.127Z,18.90
2018-05-24T22:24:13.694Z,18.80
2018-05-24T22:26:41.340Z,18.80
2018-05-24T22:29:09.495Z,18.80
2018-05-24T22:31:37.301Z,18.70
2018-05-24T22:34:04.901Z,18.60
2018-05-24T22:36:32.451Z,18.60
2018-05-24T22:39:00.018Z,18.60
2018-05-24T22:41:27.610Z,18.60
2018-05-24T22:43:55.180Z,18.60
2018-05-24T22:46:23.854Z,18.50
2018-05-24T22:48:51.436Z,18.50
2018-05-24T22:51:19.758Z,18.50
2018-05-24T22:53:47.326Z,18.50
2018-05-24T22:56:14.939Z,18.50
2018-05-24T22:58:42.515Z,18.40
2018-05-24T23:01:10.072Z,18.40
2018-05-24T23:03:37.623Z,18.40
2018-05-24T23:06:05.967Z,18.30
2018-05-24T23:08:33.511Z,18.30
2018-05-24T23:11:01.079Z,18.30
2018-05-24T23:13:29.395Z,18.30
2018-05-24T23:15:56.971Z,18.20
2018-05-24T23:18:24.528Z,18.20
2018-05-24T23:20:52.864Z,18.20
2018-05-24T23:23:21.167Z,18.20
2018-05-24T23:25:49.703Z,18.20
2018-05-24T23:28:17.250Z,18.20
2018-05-24T23:30:44.862Z,18.10
2018-05-24T23:33:12.406Z,18.10
2018-05-24T23:35:39.984Z,18.10
2018-05-24T23:38:07.539Z,18.20
2018-05-24T23:40:36.610Z,18.10
2018-05-24T23:43:04.218Z,18.10
2018-05-24T23:45:31.879Z,18.10
2018-05-24T23:47:59.436Z,18.10
2018-05-24T23:50:27.073Z,18.10
2018-05-24T23:52:54.616Z,18.20
2018-05-24T23:55:22.203Z,18.20
2018-05-24T23:57:50.533Z,18.20
